Flight Track Log - Related Links

Times and Time Zones

All times are in EDT time to prevent confusion due to time zone crossing. See the SWA3757 flight status page for this flight to view local times or setup timezone preferences in your user account.

Time Position Orientation Groundspeed Altitude Reporting Facility
EDT Latitude Longitude Course Direction KTS MPH feet Rate Location/Type
Sat 07:33:48 AM 39.1833 -76.7000 63° Northeast 150 173 1,900  Level Potomac TRACON
Sat 07:35:58 AM 39.1114 -76.7225 194° South 265 305 6,400 1,885 Climbing Washington Center
Sat 07:36:59 AM 39.1250 -76.6136 81° East 307 353 7,900 2,129 Climbing Washington Center
Sat 07:38:02 AM 39.1356 -76.4767 84° East 316 364 10,800 2,613 Climbing Washington Center
Sat 07:39:00 AM 39.4382 -75.8546 63° Northeast  Level FlightAware Approximate
Sat 07:39:03 AM 39.1442 -76.3533 85° East 342 394 13,300  Level Washington Center
Sat 07:40:07 AM 39.1536 -76.2144 85° East 384 442 16,600 3,024 Climbing Washington Center
Sat 07:41:08 AM 39.1717 -76.0600 81° East 416 479 19,600 2,902 Climbing Washington Center
Sat 07:42:09 AM 39.1906 -75.9058 81° East 434 499 22,500 2,565 Climbing Washington Center
Sat 07:43:12 AM 39.2672 -75.7872 50° Northeast 433 498 24,900 2,304 Climbing Washington Center
Sat 07:44:14 AM 39.3525 -75.6772 45° Northeast 434 499 27,300 2,244 Climbing Washington Center
Sat 07:45:15 AM 39.4392 -75.5628 46° Northeast 441 507 29,500 2,098 Climbing Washington Center
Sat 07:46:17 AM 39.5453 -75.4242 45° Northeast 453 521 31,600 1,680 Climbing Washington Center
Sat 07:47:20 AM 39.6372 -75.3028 45° Northeast 470 541 33,000 683 Climbing Washington Center
Sat 07:48:20 AM 39.7317 -75.1697 47° Northeast 497 572 33,000  Level Washington Center
Sat 07:49:24 AM 39.8331 -75.0289 47° Northeast 500 575 33,000  Level Washington Center
Sat 07:50:24 AM 39.9336 -74.8803 49° Northeast 506 582 33,000  Level Washington Center
Sat 07:51:26 AM 40.0225 -74.7519 48° Northeast 507 583 33,000  Level Washington Center
Sat 07:52:28 AM 40.0956 -74.5914 59° Northeast 505 581 33,000 -146 Level New York Center
Sat 07:53:29 AM 40.1572 -74.4156 65° Northeast 511 588 32,700 -700 Descending New York Center
Sat 07:54:28 AM 40.2228 -74.2506 62° Northeast 517 595 31,600 -1,068 Descending New York Center
Sat 07:55:27 AM 40.2839 -74.0850 64° Northeast 507 583 30,600 -1,316 Descending New York Center
Sat 07:57:35 AM 40.4061 -73.7511 64° Northeast 471 542 27,500 -1,143 Descending Boston Center
Sat 07:58:36 AM 40.4631 -73.5925 65° Northeast 456 525 27,000 -397 Descending Boston Center
Sat 07:59:36 AM 40.5186 -73.4428 64° Northeast 457 526 26,700 -661 Descending Boston Center
Sat 08:00:43 AM 40.5792 -73.2728 65° Northeast 456 525 25,600 -984 Descending Washington Center
Sat 08:01:38 AM 40.6264 -73.1436 64° Northeast 454 522 24,700 -983 Descending Boston Center
Sat 08:02:39 AM 40.6789 -72.9972 65° Northeast 445 512 23,700 -992 Descending Boston Center
Sat 08:03:39 AM 40.7294 -72.8550 65° Northeast 433 498 22,700 -1,686 Descending Boston Center
Sat 08:04:40 AM 40.7828 -72.7058 65° Northeast 427 491 20,300 -2,508 Descending Boston Center
Sat 08:05:41 AM 40.8328 -72.5603 66° East 432 497 17,600 -2,083 Descending Boston Center
Sat 08:06:41 AM 40.8819 -72.4211 65° Northeast 430 495 16,100 -1,588 Descending Boston Center
Sat 08:06:49 AM 40.8919 -72.3956 63° Northeast 425 489 15,800 -1,574 Descending Boston Center
Sat 08:07:42 AM 40.9278 -72.2911 66° East 400 460 14,500 -1,376 Descending Boston Center
Sat 08:08:38 AM 40.9725 -72.1628 65° Northeast 382 440 13,300 -1,180 Descending Boston Center
Sat 08:08:43 AM 40.9714 -72.1633 201° Southwest 388 447 13,300 -1,082 Level Boston Center
Sat 08:09:39 AM 41.0178 -72.0311 65° Northeast 370 426 12,200 -1,082 Descending Boston Center
Sat 08:09:44 AM 41.0144 -72.0378 236° Southwest 377 434 12,200 -923 Level Boston Center
Sat 08:10:44 AM 41.0617 -71.9039 65° Northeast 354 407 11,200 -1,082 Descending Boston Center
Sat 08:10:45 AM 41.0619 -71.9044 304° West 340 391 11,100 -1,082 Descending Boston Center
Sat 08:11:45 AM 41.1319 -71.8333 37° Northeast 322 371 10,100 -984 Descending Boston Center
Sat 08:11:46 AM 41.1333 -71.8333 360° North 309 356 10,100  Level Boston Center
Sat 08:12:41 AM 41.1950 -71.7758 35° Northeast 303 349 10,100  Level Boston Center
Sat 08:12:46 AM 41.2006 -71.7706 36° Northeast 302 348 10,100  Level Boston Center
Sat 08:13:41 AM 41.2658 -71.7072 36° Northeast 310 357 10,100  Level Boston Center
Sat 08:13:46 AM 41.2697 -71.7025 42° Northeast 309 356 10,100 -455 Level Boston Center
Sat 08:14:47 AM 41.3458 -71.6333 34° Northeast 309 356 9,600 -885 Descending Boston Center
Sat 08:15:48 AM 41.4158 -71.5678 35° Northeast 308 354 8,300 -1,388 Descending Boston Center
Sat 08:16:48 AM 41.4831 -71.5031 36° Northeast 300 345 6,800 -1,448 Descending Boston Center
Sat 08:17:44 AM 41.5456 -71.4419 36° Northeast 301 346 5,500 -1,377 Descending Boston Center
Sat 08:17:49 AM 41.5511 -71.4367 35° Northeast 303 349 5,400 -400 Descending Boston Center
Sat 08:18:44 AM 41.6089 -71.3758 38° Northeast 287 330 5,100 -295 Descending Boston Center
Sat 08:18:50 AM 41.6153 -71.3706 32° Northeast 294 338 5,100 -1,082 Level Boston Center
Sat 08:19:45 AM 41.6792 -71.3064 37° Northeast 296 341 4,000 -1,180 Descending Boston Center
Sat 08:19:51 AM 41.6858 -71.3014 29° Northeast 295 339 3,900 -984 Descending Boston Center
Sat 08:20:46 AM 41.7397 -71.2533 34° Northeast 230 265 3,000 -1,100 Descending Boston Center
Sat 08:20:51 AM 41.7464 -71.2531 North 253 291 2,800 -1,100 Descending Boston Center
Sat 08:21:46 AM 41.7806 -71.2856 325° Northwest 151 174 1,900 -885 Descending Boston Center
Sat 08:21:52 AM 41.7831 -71.2906 304° West 175 201 1,900 -358 Level Boston Center
Sat 08:22:53 AM 41.7903 -71.3433 280° West 146 168 1,500 -310 Descending Boston Center
Sat 08:23:48 AM 41.7792 -71.3772 246° West 106 122 1,300 -197 Descending Boston Center
Sat 08:23:54 AM 41.7783 -71.3800 248° West 115 132 1,300 -600 Level Boston Center
Sat 08:24:48 AM 41.7550 -71.4003 213° Southwest 110 127 700 -600 Descending Boston Center
Sat 08:24:54 AM 41.7533 -71.4022 221° Southwest 110 127 700 -529 Level Boston Center
Sat 08:25:56 AM 41.7236 -71.4267 212° Southwest 118 136 100 -581 Descending Boston Center

Login

Don't have an account? Register now (free) for customized features, flight alerts, and more!